createdAt,value
2022-08-22T00:00:13.658Z,91.60
2022-08-22T00:02:45.053Z,71.50
2022-08-22T00:03:10.896Z,71.90
2022-08-22T00:05:58.281Z,91.70
2022-08-22T00:08:35.406Z,91.70
2022-08-22T00:11:16.310Z,91.80
2022-08-22T00:13:48.840Z,91.90
2022-08-22T00:16:26.934Z,91.90
2022-08-22T00:19:01.539Z,92.00
2022-08-22T00:21:33.267Z,92.00
2022-08-22T00:24:28.813Z,92.00
2022-08-22T00:26:59.632Z,92.00
2022-08-22T00:29:33.808Z,92.00
2022-08-22T00:32:06.845Z,92.10
2022-08-22T00:34:40.987Z,92.10
2022-08-22T00:37:13.374Z,92.20
2022-08-22T00:40:03.422Z,92.20
2022-08-22T00:42:49.401Z,92.20
2022-08-22T00:45:56.110Z,92.20
2022-08-22T00:48:42.560Z,92.20
2022-08-22T00:51:20.443Z,92.30
2022-08-22T00:53:52.387Z,92.50
2022-08-22T00:56:35.996Z,92.60
2022-08-22T00:59:23.891Z,92.70
2022-08-22T01:01:58.258Z,92.80
2022-08-22T01:04:35.815Z,92.80
2022-08-22T01:07:10.584Z,93.00
2022-08-22T01:09:45.471Z,93.10
2022-08-22T01:12:43.399Z,93.20
2022-08-22T01:15:13.374Z,93.20
2022-08-22T01:17:55.587Z,93.20
2022-08-22T01:20:39.091Z,93.30
2022-08-22T01:23:26.612Z,93.40
2022-08-22T01:26:28.530Z,93.50
2022-08-22T01:29:27.820Z,93.70
2022-08-22T01:32:15.119Z,93.80
2022-08-22T01:35:11.139Z,93.80
2022-08-22T01:37:52.924Z,93.80
2022-08-22T01:40:36.332Z,94.10
2022-08-22T01:43:51.338Z,93.80
2022-08-22T01:46:27.925Z,93.80
2022-08-22T01:48:59.487Z,93.80
2022-08-22T01:51:34.428Z,93.80
2022-08-22T01:54:06.493Z,93.70
2022-08-22T01:56:37.501Z,93.80
2022-08-22T01:59:10.928Z,93.80
2022-08-22T02:01:45.691Z,93.80
2022-08-22T02:04:17.315Z,93.80
2022-08-22T02:06:51.835Z,93.90
2022-08-22T02:09:31.668Z,93.90
2022-08-22T02:12:01.959Z,94.00
2022-08-22T02:14:42.061Z,94.10
2022-08-22T02:17:14.049Z,94.10
2022-08-22T02:19:48.779Z,94.20
2022-08-22T02:22:27.232Z,94.20
2022-08-22T02:25:01.206Z,94.30
2022-08-22T02:27:34.729Z,94.30
2022-08-22T02:30:06.520Z,94.40
2022-08-22T02:32:38.251Z,94.40
2022-08-22T02:35:07.788Z,94.50
2022-08-22T02:37:42.875Z,94.50
2022-08-22T02:40:14.141Z,94.60
2022-08-22T02:42:44.819Z,94.90
2022-08-22T02:45:25.357Z,94.60
2022-08-22T02:47:58.406Z,94.70
2022-08-22T02:50:32.147Z,94.80
2022-08-22T02:53:05.875Z,94.80
2022-08-22T02:55:48.768Z,94.90
2022-08-22T02:58:21.491Z,94.80
2022-08-22T03:00:51.225Z,94.70
2022-08-22T03:03:24.369Z,94.70
2022-08-22T03:06:01.390Z,94.70
2022-08-22T03:08:34.268Z,94.80
2022-08-22T03:11:19.339Z,94.80
2022-08-22T03:13:55.323Z,94.80
2022-08-22T03:16:27.676Z,95.00
2022-08-22T03:19:18.771Z,95.00
2022-08-22T03:21:53.603Z,95.10
2022-08-22T03:24:25.738Z,95.20
2022-08-22T03:26:58.202Z,95.20
2022-08-22T03:29:30.473Z,95.40
2022-08-22T03:32:07.158Z,95.50
2022-08-22T03:34:36.466Z,95.60
2022-08-22T03:37:07.541Z,95.60
2022-08-22T03:40:03.242Z,95.80
2022-08-22T03:42:46.774Z,95.80
2022-08-22T03:45:33.065Z,96.00
2022-08-22T03:48:21.601Z,96.00
2022-08-22T03:51:00.281Z,96.10
2022-08-22T03:53:58.732Z,96.20
2022-08-22T03:56:45.305Z,96.30
2022-08-22T03:59:32.058Z,96.40
2022-08-22T04:02:42.308Z,96.70
2022-08-22T04:05:16.220Z,96.40
2022-08-22T04:08:06.348Z,96.40
2022-08-22T04:11:05.404Z,96.40
2022-08-22T04:13:50.869Z,96.30
2022-08-22T04:16:34.812Z,96.30
2022-08-22T04:19:15.484Z,96.30
2022-08-22T04:21:54.723Z,96.40
2022-08-22T04:24:43.219Z,96.40
2022-08-22T04:27:17.260Z,96.40
2022-08-22T04:29:48.761Z,96.40
2022-08-22T04:32:19.489Z,96.40
2022-08-22T04:34:52.038Z,96.40
2022-08-22T04:37:25.274Z,96.40
2022-08-22T04:39:55.275Z,96.30
2022-08-22T04:42:32.843Z,96.40
2022-08-22T04:45:04.934Z,96.40
2022-08-22T04:47:35.914Z,96.50
2022-08-22T04:50:08.858Z,96.40
2022-08-22T04:53:11.025Z,96.50
2022-08-22T04:55:44.644Z,96.40
2022-08-22T04:58:21.270Z,96.50
2022-08-22T05:00:53.641Z,96.40
2022-08-22T05:03:44.935Z,96.40
2022-08-22T05:06:19.331Z,96.50
2022-08-22T05:08:53.986Z,96.50
2022-08-22T05:11:23.907Z,96.60
2022-08-22T05:13:55.012Z,96.50
2022-08-22T05:16:25.324Z,96.60
2022-08-22T05:18:55.765Z,96.50
2022-08-22T05:21:28.282Z,96.60
2022-08-22T05:24:00.160Z,96.50
2022-08-22T05:26:29.711Z,96.80
2022-08-22T05:29:00.771Z,96.40
2022-08-22T05:31:32.628Z,96.40
2022-08-22T05:34:03.986Z,96.40
2022-08-22T05:36:37.033Z,96.20
2022-08-22T05:39:09.430Z,96.10
2022-08-22T05:41:39.016Z,96.10
2022-08-22T05:44:09.538Z,96.00
2022-08-22T05:46:41.161Z,95.90
2022-08-22T05:49:16.040Z,95.70
2022-08-22T05:51:49.968Z,95.50
2022-08-22T05:54:21.204Z,95.40
2022-08-22T05:57:08.804Z,95.30
2022-08-22T05:59:39.992Z,95.20
2022-08-22T06:02:12.184Z,95.10
2022-08-22T06:04:47.336Z,94.90
2022-08-22T06:07:20.538Z,94.80
2022-08-22T06:10:06.933Z,94.60
2022-08-22T06:12:37.537Z,94.40
2022-08-22T06:15:11.706Z,94.20
2022-08-22T06:17:43.759Z,94.00
2022-08-22T06:20:13.658Z,93.70
2022-08-22T06:22:46.661Z,93.50
2022-08-22T06:25:19.930Z,93.30
2022-08-22T06:27:50.446Z,93.20
2022-08-22T06:30:20.380Z,93.00
2022-08-22T06:32:59.920Z,92.80
2022-08-22T06:35:51.403Z,92.60
2022-08-22T06:38:22.190Z,92.50
2022-08-22T06:40:51.397Z,92.40
2022-08-22T06:43:20.238Z,92.20
2022-08-22T06:45:49.150Z,92.10
2022-08-22T06:48:19.926Z,92.10
2022-08-22T06:50:54.914Z,92.10
2022-08-22T06:53:28.882Z,92.10
2022-08-22T06:56:21.845Z,91.80
2022-08-22T06:58:53.686Z,91.60
2022-08-22T07:01:25.341Z,91.30
2022-08-22T07:03:58.964Z,91.20
2022-08-22T07:06:33.037Z,91.10
2022-08-22T07:09:06.867Z,91.00
2022-08-22T07:11:40.852Z,90.80
2022-08-22T07:14:11.812Z,90.80
2022-08-22T07:16:44.595Z,90.70
2022-08-22T07:19:25.772Z,90.30
2022-08-22T07:21:56.077Z,90.30
2022-08-22T07:24:29.343Z,90.40
2022-08-22T07:27:09.217Z,90.40
2022-08-22T07:29:49.096Z,90.20
2022-08-22T07:32:24.813Z,89.90
2022-08-22T07:35:10.682Z,89.60
2022-08-22T07:38:11.399Z,88.80
2022-08-22T07:40:49.261Z,88.30
2022-08-22T07:43:43.133Z,87.60
2022-08-22T07:46:25.372Z,87.10
2022-08-22T07:49:09.014Z,86.00
2022-08-22T07:51:44.771Z,85.90
2022-08-22T07:54:16.194Z,84.70
2022-08-22T07:56:55.023Z,84.20
2022-08-22T07:59:37.047Z,83.90
2022-08-22T08:02:09.397Z,83.30
2022-08-22T08:04:40.673Z,82.80
2022-08-22T08:07:13.125Z,82.40
2022-08-22T08:09:46.013Z,81.80
2022-08-22T08:12:17.347Z,81.10
2022-08-22T08:14:52.575Z,80.70
2022-08-22T08:17:31.431Z,79.70
2022-08-22T08:20:06.692Z,78.70
2022-08-22T08:22:38.005Z,78.70
2022-08-22T08:25:29.307Z,77.60
2022-08-22T08:28:19.058Z,77.10
2022-08-22T08:30:54.633Z,76.40
2022-08-22T08:33:30.101Z,76.20
2022-08-22T08:36:37.042Z,75.90
2022-08-22T08:39:14.485Z,76.10
2022-08-22T08:42:04.847Z,74.80
2022-08-22T08:45:03.409Z,74.10
2022-08-22T08:47:49.248Z,73.90
2022-08-22T08:50:31.677Z,73.60
2022-08-22T08:53:24.183Z,73.20
2022-08-22T08:55:59.310Z,73.10
2022-08-22T08:58:43.995Z,72.80
2022-08-22T09:01:36.602Z,72.60
2022-08-22T09:04:34.743Z,71.80
2022-08-22T09:07:35.159Z,71.50
2022-08-22T09:10:29.452Z,71.20
2022-08-22T09:13:34.429Z,71.10
2022-08-22T09:16:25.418Z,70.60
2022-08-22T09:19:41.949Z,69.70
2022-08-22T09:22:50.907Z,69.00
2022-08-22T09:25:38.526Z,68.20
2022-08-22T09:28:20.077Z,67.10
2022-08-22T09:31:47.502Z,66.50
2022-08-22T09:34:23.794Z,66.50
2022-08-22T09:37:14.052Z,66.20
2022-08-22T09:39:53.499Z,65.70
2022-08-22T09:42:32.622Z,65.10
2022-08-22T09:45:39.360Z,64.70
2022-08-22T09:48:20.050Z,64.20
2022-08-22T09:51:31.525Z,63.20
2022-08-22T09:54:18.646Z,62.50
2022-08-22T09:57:14.058Z,61.60
2022-08-22T09:59:53.409Z,60.40
2022-08-22T10:02:34.829Z,59.80
2022-08-22T10:05:35.133Z,60.00
2022-08-22T10:08:19.732Z,59.80
2022-08-22T10:11:04.350Z,59.40
2022-08-22T10:14:02.736Z,59.50
2022-08-22T10:16:50.144Z,59.00
2022-08-22T10:19:27.022Z,59.00
2022-08-22T10:22:19.419Z,59.00
2022-08-22T10:25:00.693Z,58.20
2022-08-22T10:27:44.977Z,57.50
2022-08-22T10:30:18.128Z,57.40
2022-08-22T10:32:52.549Z,57.10
2022-08-22T10:35:28.063Z,56.90
2022-08-22T10:38:10.786Z,57.00
2022-08-22T10:40:52.869Z,57.00
2022-08-22T10:43:28.977Z,56.40
2022-08-22T10:46:06.796Z,56.30
2022-08-22T10:48:48.618Z,56.70
2022-08-22T10:51:28.684Z,56.60
2022-08-22T10:54:34.423Z,56.10
2022-08-22T10:57:20.942Z,55.50
2022-08-22T11:00:01.107Z,55.90
2022-08-22T11:02:46.194Z,55.00
2022-08-22T11:05:27.461Z,54.60
2022-08-22T11:08:25.530Z,53.40
2022-08-22T11:11:20.930Z,52.40
2022-08-22T11:14:07.031Z,51.50
2022-08-22T11:16:55.269Z,51.20
2022-08-22T11:19:44.711Z,50.80
2022-08-22T11:22:28.993Z,50.00
2022-08-22T11:25:34.103Z,49.90
2022-08-22T11:28:23.770Z,49.50
2022-08-22T11:31:22.687Z,49.00
2022-08-22T11:33:58.406Z,48.40
2022-08-22T11:36:36.221Z,48.30
2022-08-22T11:39:18.637Z,48.40
2022-08-22T11:42:11.829Z,48.00
2022-08-22T11:44:50.722Z,47.40
2022-08-22T11:47:26.550Z,47.10
2022-08-22T11:50:01.885Z,47.10
2022-08-22T11:52:58.369Z,46.90
2022-08-22T11:55:35.109Z,46.80
2022-08-22T11:58:25.511Z,46.70
2022-08-22T12:01:04.346Z,46.90
2022-08-22T12:03:58.432Z,47.20
2022-08-22T12:06:56.061Z,47.50
2022-08-22T12:09:43.755Z,47.50
2022-08-22T12:12:25.362Z,47.60
2022-08-22T12:15:21.646Z,47.80
2022-08-22T12:18:25.739Z,48.00
2022-08-22T12:21:47.476Z,48.10
2022-08-22T12:24:36.018Z,48.40
2022-08-22T12:27:33.361Z,48.40
2022-08-22T12:30:16.082Z,47.70
2022-08-22T12:33:23.938Z,48.40
2022-08-22T12:36:06.700Z,48.90
2022-08-22T12:39:07.825Z,48.50
2022-08-22T12:42:07.391Z,48.80
2022-08-22T12:44:52.001Z,49.30
2022-08-22T12:47:34.421Z,49.70
2022-08-22T12:50:21.465Z,50.90
2022-08-22T12:53:20.052Z,51.20
2022-08-22T12:56:07.101Z,50.80
2022-08-22T12:59:00.305Z,50.00
2022-08-22T13:01:35.667Z,50.40
2022-08-22T13:04:08.918Z,50.90
2022-08-22T13:06:51.175Z,51.30
2022-08-22T13:09:28.702Z,51.00
2022-08-22T13:12:06.333Z,50.30
2022-08-22T13:14:37.011Z,50.20
2022-08-22T13:17:24.195Z,50.20
2022-08-22T13:20:08.408Z,50.30
2022-08-22T13:22:41.428Z,50.70
2022-08-22T13:25:25.936Z,51.00
2022-08-22T13:28:15.896Z,51.10
2022-08-22T13:30:46.022Z,51.20
2022-08-22T13:33:27.959Z,51.30
2022-08-22T13:36:00.785Z,51.00
2022-08-22T13:38:34.990Z,50.70
2022-08-22T13:41:08.644Z,50.60
2022-08-22T13:44:15.656Z,50.50
2022-08-22T13:47:13.044Z,50.30
2022-08-22T13:49:40.136Z,50.60
2022-08-22T13:52:29.600Z,50.50
2022-08-22T13:55:12.273Z,50.40
2022-08-22T13:57:52.060Z,50.60
2022-08-22T14:00:57.305Z,51.60
2022-08-22T14:03:36.623Z,51.20
2022-08-22T14:06:36.798Z,51.20
2022-08-22T14:09:17.713Z,50.90
2022-08-22T14:12:12.222Z,51.10
2022-08-22T14:14:42.744Z,51.50
2022-08-22T14:17:19.250Z,52.10
2022-08-22T14:19:59.094Z,52.80
2022-08-22T14:22:31.749Z,53.50
2022-08-22T14:25:03.243Z,54.00
2022-08-22T14:27:34.498Z,54.80
2022-08-22T14:30:06.033Z,55.50
2022-08-22T14:32:41.777Z,56.10
2022-08-22T14:35:23.659Z,56.70
2022-08-22T14:38:17.460Z,57.50
2022-08-22T14:40:46.804Z,59.40
2022-08-22T14:43:22.443Z,60.90
2022-08-22T14:45:56.749Z,62.40
2022-08-22T14:48:31.600Z,64.20
2022-08-22T14:51:04.110Z,66.10
2022-08-22T14:53:33.881Z,67.80
2022-08-22T14:56:04.447Z,68.90
2022-08-22T14:58:38.161Z,70.10
2022-08-22T15:01:11.721Z,71.50
2022-08-22T15:03:42.489Z,72.80
2022-08-22T15:06:14.905Z,73.90
2022-08-22T15:08:49.693Z,75.00
2022-08-22T15:11:25.648Z,76.50
2022-08-22T15:14:00.771Z,77.90
2022-08-22T15:16:33.355Z,79.20
2022-08-22T15:19:21.409Z,80.50
2022-08-22T15:22:13.700Z,81.50
2022-08-22T15:25:01.032Z,82.40
2022-08-22T15:27:35.505Z,83.40
2022-08-22T15:30:20.443Z,84.80
2022-08-22T15:32:52.888Z,86.00
2022-08-22T15:35:29.927Z,87.60
2022-08-22T15:38:02.011Z,88.70
2022-08-22T15:40:35.828Z,89.80
2022-08-22T15:43:23.140Z,90.20
2022-08-22T15:45:55.811Z,90.70
2022-08-22T15:48:27.984Z,91.10
2022-08-22T15:51:33.625Z,91.40
2022-08-22T15:54:16.412Z,91.80
2022-08-22T15:57:10.273Z,92.10
2022-08-22T15:59:48.192Z,92.50
2022-08-22T16:02:43.695Z,93.00
2022-08-22T16:05:24.900Z,93.30
2022-08-22T16:08:02.942Z,93.50
2022-08-22T16:10:36.141Z,93.90
2022-08-22T16:13:38.443Z,94.40
2022-08-22T16:16:08.612Z,94.50
2022-08-22T16:18:55.755Z,94.80
2022-08-22T16:21:39.593Z,95.10
2022-08-22T16:24:33.884Z,95.20
2022-08-22T16:27:19.336Z,95.30
2022-08-22T16:29:48.264Z,95.50
2022-08-22T16:32:24.374Z,96.10
2022-08-22T16:34:53.065Z,96.20
2022-08-22T16:37:32.907Z,96.70
2022-08-22T16:40:14.617Z,96.20
2022-08-22T16:42:46.585Z,96.20
2022-08-22T16:45:27.106Z,96.50
2022-08-22T16:47:58.575Z,96.50
2022-08-22T16:51:01.850Z,96.80
2022-08-22T16:53:58.138Z,96.50
2022-08-22T16:56:57.935Z,96.40
2022-08-22T16:59:39.188Z,96.10
2022-08-22T17:02:47.422Z,96.00
2022-08-22T17:05:23.323Z,95.90
2022-08-22T17:08:24.468Z,95.90
2022-08-22T17:10:59.099Z,95.90
2022-08-22T17:13:41.027Z,96.10
2022-08-22T17:16:18.598Z,96.40
2022-08-22T17:18:51.115Z,96.60
2022-08-22T17:21:25.861Z,96.70
2022-08-22T17:24:00.224Z,96.90
2022-08-22T17:26:43.435Z,97.10
2022-08-22T17:29:16.513Z,97.20
2022-08-22T17:31:51.313Z,97.30
2022-08-22T17:34:29.907Z,97.70
2022-08-22T17:37:07.922Z,97.50
2022-08-22T17:40:24.560Z,97.60
2022-08-22T17:43:06.499Z,97.80
2022-08-22T17:45:43.034Z,97.80
2022-08-22T17:48:17.690Z,97.80
2022-08-22T17:50:49.658Z,97.90
2022-08-22T17:53:30.255Z,98.00
2022-08-22T17:56:04.744Z,98.10
2022-08-22T17:58:43.688Z,98.20
2022-08-22T18:01:16.555Z,98.40
2022-08-22T18:03:54.443Z,98.40
2022-08-22T18:06:26.405Z,98.40
2022-08-22T18:09:14.343Z,98.50
2022-08-22T18:11:47.434Z,98.50
2022-08-22T18:14:22.760Z,98.50
2022-08-22T18:16:53.625Z,98.60
2022-08-22T18:19:35.230Z,98.30
2022-08-22T18:22:11.590Z,98.00
2022-08-22T18:24:46.673Z,98.10
2022-08-22T18:27:39.552Z,98.20
2022-08-22T18:30:16.821Z,98.40
2022-08-22T18:32:51.019Z,98.40
2022-08-22T18:35:24.465Z,98.30
2022-08-22T18:37:57.328Z,98.10
2022-08-22T18:40:30.838Z,98.00
2022-08-22T18:43:24.656Z,98.00
2022-08-22T18:46:04.158Z,98.20
2022-08-22T18:48:59.315Z,98.40
2022-08-22T18:51:38.303Z,98.50
2022-08-22T18:54:37.891Z,98.50
2022-08-22T18:57:12.847Z,98.50
2022-08-22T18:59:46.860Z,98.50
2022-08-22T19:02:23.426Z,98.40
2022-08-22T19:05:05.577Z,98.30
2022-08-22T19:07:53.140Z,98.30
2022-08-22T19:10:36.326Z,98.00
2022-08-22T19:13:17.388Z,97.80
2022-08-22T19:15:51.715Z,97.80
2022-08-22T19:18:36.546Z,97.80
2022-08-22T19:21:40.826Z,97.80
2022-08-22T19:24:12.976Z,97.80
2022-08-22T19:26:44.614Z,97.90
2022-08-22T19:29:31.239Z,98.00
2022-08-22T19:32:06.597Z,98.30
2022-08-22T19:34:46.953Z,98.00
2022-08-22T19:37:31.921Z,98.10
2022-08-22T19:40:06.419Z,98.10
2022-08-22T19:42:38.353Z,98.00
2022-08-22T19:45:25.814Z,98.00
2022-08-22T19:47:58.159Z,98.10
2022-08-22T19:50:32.021Z,98.10
2022-08-22T19:53:28.337Z,98.20
2022-08-22T19:56:06.986Z,98.30
2022-08-22T19:58:42.639Z,98.50
2022-08-22T20:01:25.238Z,98.80
2022-08-22T20:03:55.612Z,98.60
2022-08-22T20:06:43.399Z,98.60
2022-08-22T20:09:19.052Z,98.60
2022-08-22T20:11:56.182Z,98.50
2022-08-22T20:14:30.555Z,98.50
2022-08-22T20:17:11.288Z,98.50
2022-08-22T20:19:42.430Z,98.50
2022-08-22T20:22:16.861Z,98.50
2022-08-22T20:24:50.262Z,98.40
2022-08-22T20:27:24.750Z,98.40
2022-08-22T20:29:56.630Z,98.50
2022-08-22T20:32:27.067Z,98.60
2022-08-22T20:34:59.217Z,98.60
2022-08-22T20:37:56.212Z,98.70
2022-08-22T20:40:56.154Z,98.80
2022-08-22T20:43:18.869Z,98.80
2022-08-22T20:45:53.407Z,98.70
2022-08-22T20:48:22.269Z,98.70
2022-08-22T20:50:51.751Z,98.80
2022-08-22T20:53:21.442Z,98.90
2022-08-22T20:55:53.914Z,98.90
2022-08-22T20:58:25.240Z,99.10
2022-08-22T21:00:56.561Z,99.00
2022-08-22T21:03:44.923Z,99.10
2022-08-22T21:06:17.650Z,99.30
2022-08-22T21:08:47.426Z,99.40
2022-08-22T21:11:38.485Z,99.60
2022-08-22T21:14:20.758Z,99.90
2022-08-22T21:16:50.044Z,99.90
2022-08-22T21:19:20.244Z,99.90
2022-08-22T21:21:49.022Z,99.90
2022-08-22T21:24:17.670Z,99.90
2022-08-22T21:26:49.335Z,99.90
2022-08-22T21:29:23.711Z,99.90
2022-08-22T21:31:54.501Z,99.90
2022-08-22T21:34:47.785Z,99.90
2022-08-22T21:37:18.018Z,99.90
2022-08-22T21:39:48.982Z,99.90
2022-08-22T21:42:27.153Z,99.90
2022-08-22T21:44:58.143Z,99.90
2022-08-22T21:47:31.216Z,99.90
2022-08-22T21:50:02.159Z,99.90
2022-08-22T21:52:31.296Z,99.90
2022-08-22T21:55:14.388Z,99.90
2022-08-22T21:57:43.473Z,99.90
2022-08-22T22:00:33.753Z,99.90
2022-08-22T22:03:07.286Z,99.90
2022-08-22T22:05:38.118Z,99.90
2022-08-22T22:08:07.769Z,99.90
2022-08-22T22:10:36.648Z,99.90
2022-08-22T22:13:05.707Z,99.90
2022-08-22T22:15:38.266Z,99.90
2022-08-22T22:18:07.335Z,99.90
2022-08-22T22:20:36.703Z,99.90
2022-08-22T22:23:05.376Z,99.90
2022-08-22T22:25:39.709Z,99.90
2022-08-22T22:28:11.882Z,99.90
2022-08-22T22:30:43.211Z,99.90
2022-08-22T22:33:12.558Z,99.90
2022-08-22T22:35:41.867Z,99.90
2022-08-22T22:38:10.680Z,99.90
2022-08-22T22:40:39.407Z,99.90
2022-08-22T22:43:08.359Z,99.90
2022-08-22T22:45:36.986Z,99.90
2022-08-22T22:48:07.417Z,99.90
2022-08-22T22:50:40.839Z,99.90
2022-08-22T22:53:09.935Z,99.90
2022-08-22T22:55:41.626Z,99.90
2022-08-22T22:58:10.871Z,99.90
2022-08-22T23:00:40.333Z,99.90
2022-08-22T23:03:11.236Z,99.90
2022-08-22T23:05:40.046Z,99.90
2022-08-22T23:08:08.547Z,99.90
2022-08-22T23:10:37.121Z,99.90
2022-08-22T23:13:06.811Z,99.90
2022-08-22T23:15:35.415Z,99.90
2022-08-22T23:18:04.025Z,99.90
2022-08-22T23:20:33.973Z,99.90
2022-08-22T23:23:02.660Z,99.90
2022-08-22T23:25:31.242Z,99.90
2022-08-22T23:28:00.424Z,99.90
2022-08-22T23:30:29.230Z,99.90
2022-08-22T23:32:57.906Z,99.90
2022-08-22T23:35:26.430Z,99.90
2022-08-22T23:37:56.766Z,99.90
2022-08-22T23:40:25.434Z,99.90
2022-08-22T23:42:54.099Z,99.90
2022-08-22T23:45:24.997Z,99.90
2022-08-22T23:47:53.541Z,99.90
2022-08-22T23:50:22.180Z,99.90
2022-08-22T23:52:50.817Z,99.90
2022-08-22T23:55:21.034Z,99.90
2022-08-22T23:57:49.686Z,99.90
